Time;durP1;ratioP1;P1;durP2;ratioP2;P2;SDS_P1;SDS_P2;PMS_P1;PMS_P2;Temp;Humidity;BMP_temperature;BMP_pressure;BME280_temperature;BME280_humidity;BME280_pressure;Samples;Min_cycle;Max_cycle;Signal;HPM_P1;HPM_P2
2021/04/01 00:02:26;;;;;;;8.47;3.87;;;;;;;;;;5030174;28;20182;-79
2021/04/01 00:04:52;;;;;;;4.43;4.03;;;;;;;;;;5030863;28;20464;-79
2021/04/01 00:07:18;;;;;;;5.82;3.72;;;;;;;;;;5034066;28;20191;-79
2021/04/01 00:09:43;;;;;;;7.18;3.85;;;;;;;;;;5054584;28;20200;-80
2021/04/01 00:12:10;;;;;;;6.63;3.77;;;;;;;;;;5039032;28;20182;-79
2021/04/01 00:14:36;;;;;;;3.90;3.15;;;;;;;;;;5039251;28;20480;-79
2021/04/01 00:17:03;;;;;;;5.03;3.50;;;;;;;;;;5052580;28;20204;-79
2021/04/01 00:19:29;;;;;;;6.20;4.95;;;;;;;;;;5036456;28;20257;-80
2021/04/01 00:21:55;;;;;;;6.05;3.78;;;;;;;;;;5040437;28;20181;-79
2021/04/01 00:24:21;;;;;;;8.23;3.55;;;;;;;;;;5040291;28;20244;-79
2021/04/01 00:26:47;;;;;;;6.72;4.28;;;;;;;;;;5037024;28;20182;-79
2021/04/01 00:29:13;;;;;;;8.80;3.95;;;;;;;;;;5039464;28;20181;-80
2021/04/01 00:31:39;;;;;;;4.38;3.10;;;;;;;;;;5035963;28;20244;-80
2021/04/01 00:34:06;;;;;;;4.40;3.13;;;;;;;;;;5035970;28;20185;-79
2021/04/01 00:36:32;;;;;;;4.60;2.83;;;;;;;;;;5040421;28;20220;-79
2021/04/01 00:38:58;;;;;;;4.50;3.95;;;;;;;;;;5037245;28;20186;-79
2021/04/01 00:41:24;;;;;;;5.18;3.83;;;;;;;;;;5046653;28;20173;-79
2021/04/01 00:43:50;;;;;;;4.43;3.47;;;;;;;;;;5048468;28;20210;-79
2021/04/01 00:46:16;;;;;;;4.30;3.47;;;;;;;;;;5029825;28;20453;-79
2021/04/01 00:48:42;;;;;;;4.63;3.78;;;;;;;;;;5045339;28;20205;-79
2021/04/01 00:51:08;;;;;;;5.80;4.17;;;;;;;;;;5036631;28;20667;-80
2021/04/01 00:53:34;;;;;;;5.90;4.13;;;;;;;;;;5027760;28;20417;-79
2021/04/01 00:56:00;;;;;;;9.32;4.10;;;;;;;;;;5029345;28;20405;-79
2021/04/01 00:58:26;;;;;;;7.28;3.75;;;;;;;;;;5034563;28;20200;-79
2021/04/01 01:01:05;;;;;;;9.13;5.57;;;;;;;;;;5037001;28;20189;-79
2021/04/01 01:03:32;;;;;;;5.57;4.35;;;;;;;;;;5029633;28;20196;-79
2021/04/01 01:05:58;;;;;;;8.02;4.13;;;;;;;;;;5051812;28;20615;-80
2021/04/01 01:08:24;;;;;;;3.87;3.50;;;;;;;;;;5046843;28;20201;-79
2021/04/01 01:10:50;;;;;;;5.87;4.17;;;;;;;;;;5051319;28;20420;-79
2021/04/01 01:13:16;;;;;;;5.67;4.40;;;;;;;;;;5039232;28;20470;-79
2021/04/01 01:15:42;;;;;;;5.33;4.07;;;;;;;;;;5045678;28;20642;-79
2021/04/01 01:18:08;;;;;;;4.47;3.47;;;;;;;;;;5052810;28;20473;-79
2021/04/01 01:20:34;;;;;;;12.75;5.30;;;;;;;;;;5044195;28;20170;-79
2021/04/01 01:23:04;;;;;;;4.60;4.20;;;;;;;;;;5035870;28;20655;-79
2021/04/01 01:25:30;;;;;;;4.18;3.72;;;;;;;;;;5031557;28;20465;-79
2021/04/01 01:27:56;;;;;;;5.32;4.05;;;;;;;;;;5029267;28;20594;-80
2021/04/01 01:30:22;;;;;;;5.05;4.55;;;;;;;;;;5028705;28;20204;-79
2021/04/01 01:32:56;;;;;;;7.43;4.25;;;;;;;;;;5025579;28;20179;-79
2021/04/01 01:35:24;;;;;;;5.60;4.32;;;;;;;;;;5055523;28;20312;-79
2021/04/01 01:37:57;;;;;;;12.50;4.63;;;;;;;;;;5030643;28;20202;-79
2021/04/01 01:40:24;;;;;;;6.85;5.13;;;;;;;;;;5044548;28;20189;-79
2021/04/01 01:42:50;;;;;;;4.78;4.00;;;;;;;;;;5028874;28;20221;-79
2021/04/01 01:45:17;;;;;;;9.25;4.90;;;;;;;;;;5027923;28;20216;-78
2021/04/01 01:47:43;;;;;;;6.07;4.18;;;;;;;;;;5040879;28;20223;-79
2021/04/01 01:50:13;;;;;;;5.53;4.20;;;;;;;;;;5037864;28;20171;-79
2021/04/01 01:52:40;;;;;;;5.75;4.68;;;;;;;;;;5041319;28;20643;-79
2021/04/01 01:55:07;;;;;;;6.18;5.05;;;;;;;;;;5035227;28;20197;-79
2021/04/01 01:57:34;;;;;;;9.88;5.07;;;;;;;;;;5038473;28;20194;-79
2021/04/01 02:00:00;;;;;;;7.57;4.50;;;;;;;;;;5050742;28;20209;-79
2021/04/01 02:02:27;;;;;;;4.85;3.97;;;;;;;;;;5037823;28;20181;-79
2021/04/01 02:04:53;;;;;;;6.63;4.70;;;;;;;;;;5050852;28;20197;-79
2021/04/01 02:07:19;;;;;;;9.40;5.53;;;;;;;;;;5038268;28;20202;-79
2021/04/01 02:09:45;;;;;;;6.70;4.55;;;;;;;;;;5036389;28;20257;-79
2021/04/01 02:12:12;;;;;;;7.20;5.20;;;;;;;;;;5037332;28;20186;-79
2021/04/01 02:14:38;;;;;;;7.53;4.47;;;;;;;;;;5042234;28;20170;-79
2021/04/01 02:17:04;;;;;;;6.83;4.53;;;;;;;;;;5027993;28;20196;-79
2021/04/01 02:19:30;;;;;;;7.45;4.63;;;;;;;;;;5028732;28;20928;-79
2021/04/01 02:21:56;;;;;;;8.00;5.30;;;;;;;;;;5029216;28;20193;-79
2021/04/01 02:24:22;;;;;;;7.80;4.60;;;;;;;;;;5054293;28;20996;-79
2021/04/01 02:26:48;;;;;;;6.20;4.87;;;;;;;;;;5024222;28;20468;-79
2021/04/01 02:29:14;;;;;;;5.27;4.60;;;;;;;;;;5041120;28;20420;-79
2021/04/01 02:31:40;;;;;;;9.53;4.93;;;;;;;;;;5034499;28;20428;-79
2021/04/01 02:34:06;;;;;;;5.00;4.50;;;;;;;;;;5036374;28;20487;-79
2021/04/01 02:36:32;;;;;;;9.40;5.87;;;;;;;;;;5042769;28;20900;-79
2021/04/01 02:38:58;;;;;;;6.97;4.80;;;;;;;;;;5054665;28;20437;-79
2021/04/01 02:41:24;;;;;;;7.00;5.47;;;;;;;;;;5048856;28;20208;-79
2021/04/01 02:43:50;;;;;;;6.90;5.17;;;;;;;;;;5042320;28;20525;-79
2021/04/01 02:46:16;;;;;;;5.03;4.53;;;;;;;;;;5056151;28;20467;-79
2021/04/01 02:48:42;;;;;;;8.20;5.60;;;;;;;;;;5041871;28;20480;-79
2021/04/01 02:51:08;;;;;;;7.93;5.40;;;;;;;;;;5045545;28;20804;-79
2021/04/01 02:53:34;;;;;;;6.35;5.68;;;;;;;;;;5038679;28;20426;-79
2021/04/01 02:56:00;;;;;;;5.37;4.87;;;;;;;;;;5055912;28;20241;-79
2021/04/01 02:58:26;;;;;;;5.32;4.82;;;;;;;;;;5040960;28;20440;-79
2021/04/01 03:00:53;;;;;;;6.95;5.28;;;;;;;;;;5041653;28;20224;-80
2021/04/01 03:03:23;;;;;;;7.13;4.95;;;;;;;;;;5042957;28;20174;-79
2021/04/01 03:05:49;;;;;;;8.05;5.07;;;;;;;;;;5043654;28;20205;-79
2021/04/01 03:08:15;;;;;;;9.07;5.30;;;;;;;;;;5055096;28;20546;-79
2021/04/01 03:10:41;;;;;;;5.50;4.88;;;;;;;;;;5032518;28;20183;-79
2021/04/01 03:13:08;;;;;;;7.63;5.05;;;;;;;;;;5033797;28;20242;-79
2021/04/01 03:15:34;;;;;;;7.13;4.55;;;;;;;;;;5047627;28;20190;-79
2021/04/01 03:18:00;;;;;;;5.50;4.50;;;;;;;;;;5036256;28;20194;-79
2021/04/01 03:20:26;;;;;;;7.57;5.37;;;;;;;;;;5044540;28;20188;-79
2021/04/01 03:22:52;;;;;;;10.40;5.15;;;;;;;;;;5041644;28;20516;-79
2021/04/01 03:25:18;;;;;;;6.60;5.37;;;;;;;;;;5042585;28;20205;-80
2021/04/01 03:27:44;;;;;;;8.20;4.80;;;;;;;;;;5039332;28;20449;-79
2021/04/01 03:30:12;;;;;;;8.07;4.97;;;;;;;;;;5055250;28;20178;-79
2021/04/01 03:32:39;;;;;;;5.78;4.95;;;;;;;;;;5045276;28;20459;-79
2021/04/01 03:35:06;;;;;;;10.35;5.78;;;;;;;;;;5030939;28;20197;-79
2021/04/01 03:37:32;;;;;;;5.32;4.78;;;;;;;;;;5035973;28;20189;-79
2021/04/01 03:39:59;;;;;;;6.05;5.07;;;;;;;;;;5037334;28;20178;-79
2021/04/01 03:42:25;;;;;;;6.00;5.13;;;;;;;;;;5041462;28;20631;-79
2021/04/01 03:44:52;;;;;;;10.18;5.00;;;;;;;;;;5036747;28;20251;-79
2021/04/01 03:47:18;;;;;;;6.43;5.70;;;;;;;;;;5045520;28;20174;-79
2021/04/01 03:49:44;;;;;;;7.55;5.10;;;;;;;;;;5035865;28;20625;-79
2021/04/01 03:52:10;;;;;;;13.75;5.65;;;;;;;;;;5043336;28;20192;-79
2021/04/01 03:54:36;;;;;;;7.65;4.63;;;;;;;;;;5057074;28;20193;-79
2021/04/01 03:57:03;;;;;;;5.97;5.32;;;;;;;;;;5037892;28;20201;-79
2021/04/01 03:59:42;;;;;;;6.38;4.55;;;;;;;;;;5028282;28;20179;-79
2021/04/01 04:14:47;;;;;;;5.07;4.53;;;;;;;;;;5027334;28;20452;-79
2021/04/01 04:17:13;;;;;;;7.80;5.45;;;;;;;;;;5043490;28;20195;-79
2021/04/01 04:19:39;;;;;;;7.13;5.47;;;;;;;;;;5051547;28;20253;-79
2021/04/01 04:22:05;;;;;;;8.57;5.23;;;;;;;;;;5040635;28;20201;-79
2021/04/01 04:24:34;;;;;;;6.40;4.80;;;;;;;;;;5038612;28;20437;-79
2021/04/01 04:27:13;;;;;;;6.55;5.35;;;;;;;;;;5040200;28;20195;-79
2021/04/01 04:29:39;;;;;;;9.30;5.68;;;;;;;;;;5043360;28;20177;-79
2021/04/01 04:32:05;;;;;;;8.55;5.22;;;;;;;;;;5042736;28;20583;-79
2021/04/01 04:34:31;;;;;;;9.40;5.70;;;;;;;;;;5036104;28;20187;-79
2021/04/01 04:36:57;;;;;;;8.97;5.60;;;;;;;;;;5036535;28;20240;-79
2021/04/01 04:39:23;;;;;;;10.32;6.20;;;;;;;;;;5033905;28;20444;-79
2021/04/01 04:41:49;;;;;;;5.23;4.63;;;;;;;;;;5032026;28;20249;-79
2021/04/01 04:44:15;;;;;;;10.50;6.40;;;;;;;;;;5039638;28;20490;-79
2021/04/01 04:46:41;;;;;;;7.70;6.20;;;;;;;;;;5031443;28;20183;-79
2021/04/01 04:49:07;;;;;;;7.90;5.73;;;;;;;;;;5030240;28;20464;-78
2021/04/01 04:51:33;;;;;;;8.73;6.25;;;;;;;;;;5039971;28;20447;-79
2021/04/01 04:53:59;;;;;;;9.90;5.43;;;;;;;;;;5057972;28;20181;-79
2021/04/01 04:56:26;;;;;;;10.20;6.13;;;;;;;;;;5045758;28;20839;-79
2021/04/01 05:08:58;;;;;;;6.20;4.90;;;;;;;;;;5040561;28;20213;-79
2021/04/01 05:11:25;;;;;;;7.60;5.63;;;;;;;;;;5046829;28;20949;-79
2021/04/01 05:13:51;;;;;;;6.25;5.65;;;;;;;;;;5051651;28;20405;-79
2021/04/01 05:16:17;;;;;;;7.63;6.20;;;;;;;;;;5035392;28;20201;-79
2021/04/01 05:18:46;;;;;;;8.77;6.75;;;;;;;;;;5052484;28;20801;-78
2021/04/01 05:21:13;;;;;;;10.80;6.28;;;;;;;;;;5054067;28;20193;-79
2021/04/01 05:23:46;;;;;;;6.43;5.57;;;;;;;;;;5026528;28;20174;-79
2021/04/01 05:26:30;;;;;;;10.00;5.47;;;;;;;;;;5037893;28;20213;-79
2021/04/01 05:29:01;;;;;;;7.10;5.97;;;;;;;;;;5043364;28;20189;-79
2021/04/01 05:31:29;;;;;;;8.27;4.95;;;;;;;;;;5047269;28;20201;-79
2021/04/01 05:33:57;;;;;;;8.55;6.00;;;;;;;;;;5033526;28;20633;-79
2021/04/01 05:36:27;;;;;;;8.60;5.70;;;;;;;;;;5040407;28;20197;-79
2021/04/01 05:38:54;;;;;;;8.35;5.20;;;;;;;;;;5035246;28;20178;-79
2021/04/01 05:41:25;;;;;;;6.45;4.82;;;;;;;;;;5046980;28;20542;-79
2021/04/01 05:44:09;;;;;;;6.13;5.55;;;;;;;;;;5035472;28;20580;-79
2021/04/01 05:46:42;;;;;;;7.05;5.80;;;;;;;;;;5034918;28;20202;-79
2021/04/01 05:49:30;;;;;;;8.88;6.03;;;;;;;;;;5051359;28;20206;-79
2021/04/01 06:02:33;;;;;;;8.57;5.70;;;;;;;;;;5028711;28;20181;-80
2021/04/01 06:05:04;;;;;;;9.93;6.13;;;;;;;;;;5028611;28;20272;-79
2021/04/01 06:07:38;;;;;;;7.18;6.43;;;;;;;;;;5044569;28;20703;-79
2021/04/01 06:10:04;;;;;;;10.35;6.38;;;;;;;;;;5028004;28;20182;-79
2021/04/01 06:12:31;;;;;;;8.80;6.20;;;;;;;;;;5028679;28;20268;-79
2021/04/01 06:14:59;;;;;;;8.50;6.03;;;;;;;;;;5051301;28;20196;-77
2021/04/01 06:17:26;;;;;;;8.45;6.75;;;;;;;;;;5037667;28;20174;-77
2021/04/01 06:19:54;;;;;;;7.72;6.07;;;;;;;;;;5050026;28;20613;-76
2021/04/01 06:22:21;;;;;;;8.90;7.30;;;;;;;;;;5034403;28;20190;-77
2021/04/01 06:24:49;;;;;;;11.38;7.03;;;;;;;;;;5035712;28;20282;-77
2021/04/01 06:27:18;;;;;;;9.13;6.20;;;;;;;;;;5038071;28;20182;-77
2021/04/01 06:30:10;;;;;;;12.00;7.43;;;;;;;;;;5040339;28;20174;-77
2021/04/01 06:32:36;;;;;;;11.60;6.75;;;;;;;;;;5041619;28;20201;-77
2021/04/01 06:35:14;;;;;;;7.95;6.88;;;;;;;;;;5054415;28;20724;-77
2021/04/01 06:40:06;;;;;;;9.80;7.27;;;;;;;;;;5034178;28;20256;-76
2021/04/01 06:42:56;;;;;;;13.93;7.00;;;;;;;;;;5034923;28;20507;-77
2021/04/01 06:45:23;;;;;;;6.40;5.72;;;;;;;;;;5035607;28;20226;-78
2021/04/01 06:47:51;;;;;;;7.13;5.78;;;;;;;;;;5056799;28;20189;-78
2021/04/01 06:50:28;;;;;;;8.70;6.45;;;;;;;;;;5056971;28;20174;-77
2021/04/01 06:53:02;;;;;;;8.15;6.15;;;;;;;;;;5056970;28;20177;-78
2021/04/01 06:55:46;;;;;;;12.88;7.00;;;;;;;;;;5037886;28;20179;-78
2021/04/01 07:01:06;;;;;;;7.38;6.60;;;;;;;;;;5034587;28;20275;-77
2021/04/01 07:03:54;;;;;;;9.30;6.55;;;;;;;;;;5038974;28;20236;-77
2021/04/01 07:06:28;;;;;;;7.78;6.60;;;;;;;;;;5038241;28;20212;-77
2021/04/01 07:09:07;;;;;;;7.40;6.20;;;;;;;;;;5036844;28;20659;-78
2021/04/01 07:11:36;;;;;;;11.43;7.60;;;;;;;;;;5043794;28;20180;-78
2021/04/01 07:14:05;;;;;;;8.60;6.95;;;;;;;;;;5027890;28;20639;-78
2021/04/01 07:47:19;;;;;;;12.60;10.50;;;;;;;;;;5039920;28;20235;-79
2021/04/01 07:49:47;;;;;;;12.80;10.73;;;;;;;;;;5035196;28;20182;-79
2021/04/01 07:52:14;;;;;;;16.85;12.20;;;;;;;;;;5041464;28;20659;-77
2021/04/01 08:00:11;;;;;;;18.17;12.32;;;;;;;;;;5030102;28;20194;-81
2021/04/01 08:05:33;;;;;;;18.90;14.13;;;;;;;;;;5045357;28;20672;-80
2021/04/01 08:08:01;;;;;;;14.93;13.30;;;;;;;;;;5043685;28;20184;-82
2021/04/01 08:10:32;;;;;;;15.93;14.38;;;;;;;;;;5036272;28;20188;-82
2021/04/01 08:13:06;;;;;;;19.40;15.52;;;;;;;;;;5036712;28;20207;-82
2021/04/01 08:15:49;;;;;;;23.60;15.38;;;;;;;;;;5029331;28;20546;-78
2021/04/01 08:20:43;;;;;;;18.63;15.37;;;;;;;;;;5037899;28;20213;-78
2021/04/01 08:23:16;;;;;;;20.77;15.30;;;;;;;;;;5054227;28;20444;-78
2021/04/01 08:25:53;;;;;;;22.42;17.40;;;;;;;;;;5035721;28;20205;-82
2021/04/01 08:36:08;;;;;;;16.77;15.00;;;;;;;;;;5038605;28;20187;-82
2021/04/01 08:38:34;;;;;;;21.70;15.38;;;;;;;;;;5041633;28;20222;-82
2021/04/01 08:41:06;;;;;;;20.08;15.63;;;;;;;;;;5037543;28;20170;-82
2021/04/01 08:43:57;;;;;;;22.02;15.50;;;;;;;;;;5033319;28;20591;-82
2021/04/01 08:46:38;;;;;;;18.98;14.63;;;;;;;;;;5034095;28;20629;-82
2021/04/01 08:49:05;;;;;;;16.95;13.75;;;;;;;;;;5035219;28;20244;-82
2021/04/01 08:51:37;;;;;;;19.50;14.82;;;;;;;;;;5040307;28;20635;-82
2021/04/01 08:54:22;;;;;;;17.63;14.18;;;;;;;;;;5055330;28;20187;-84
2021/04/01 08:56:48;;;;;;;17.60;14.38;;;;;;;;;;5057073;28;20182;-83
2021/04/01 08:59:22;;;;;;;16.33;13.03;;;;;;;;;;5053670;28;20174;-82
2021/04/01 09:01:49;;;;;;;17.90;13.90;;;;;;;;;;5034258;28;20444;-83
2021/04/01 09:04:21;;;;;;;16.83;14.35;;;;;;;;;;5037875;28;20236;-83
2021/04/01 09:06:47;;;;;;;15.00;13.40;;;;;;;;;;5038068;28;20225;-83
2021/04/01 09:09:14;;;;;;;15.55;12.77;;;;;;;;;;5038923;28;20560;-82
2021/04/01 09:14:27;;;;;;;17.45;14.43;;;;;;;;;;5038478;28;20193;-82
2021/04/01 09:17:05;;;;;;;17.95;14.88;;;;;;;;;;5029986;28;20170;-83
2021/04/01 09:19:31;;;;;;;20.67;15.63;;;;;;;;;;5044756;28;20189;-82
2021/04/01 09:21:57;;;;;;;21.13;15.80;;;;;;;;;;5030180;28;20586;-82
2021/04/01 09:24:32;;;;;;;22.45;16.35;;;;;;;;;;5055102;28;20639;-83
2021/04/01 09:27:00;;;;;;;22.15;16.25;;;;;;;;;;5034455;28;20182;-82
2021/04/01 09:29:37;;;;;;;18.52;14.07;;;;;;;;;;5027030;28;20218;-82
2021/04/01 09:32:04;;;;;;;22.50;14.43;;;;;;;;;;5040000;28;20174;-83
2021/04/01 09:34:32;;;;;;;20.05;14.48;;;;;;;;;;5048531;28;20186;-83
2021/04/01 09:37:07;;;;;;;17.85;12.68;;;;;;;;;;5035939;28;20270;-83
2021/04/01 09:39:35;;;;;;;16.38;12.68;;;;;;;;;;5029373;28;20196;-84
2021/04/01 09:42:19;;;;;;;17.52;12.68;;;;;;;;;;5051293;28;20186;-82
2021/04/01 09:44:51;;;;;;;17.58;12.68;;;;;;;;;;5035766;28;20288;-83
2021/04/01 09:47:20;;;;;;;16.27;12.55;;;;;;;;;;5038497;28;20192;-83
2021/04/01 09:49:55;;;;;;;20.95;13.15;;;;;;;;;;5034643;28;20193;-84
2021/04/01 09:52:26;;;;;;;15.52;12.75;;;;;;;;;;5034048;28;20192;-83
2021/04/01 09:54:57;;;;;;;23.48;13.30;;;;;;;;;;5037207;28;20181;-83
2021/04/01 09:57:26;;;;;;;25.67;14.38;;;;;;;;;;5028244;28;20324;-83
2021/04/01 10:00:08;;;;;;;26.60;13.88;;;;;;;;;;5036316;28;20189;-83
2021/04/01 10:02:35;;;;;;;27.67;14.88;;;;;;;;;;5041207;28;20261;-83
2021/04/01 10:05:06;;;;;;;24.63;15.45;;;;;;;;;;5028891;28;20213;-83
2021/04/01 10:07:34;;;;;;;23.50;16.02;;;;;;;;;;5029069;28;20178;-82
2021/04/01 10:10:00;;;;;;;26.90;13.48;;;;;;;;;;5035248;28;20211;-83
2021/04/01 10:12:36;;;;;;;31.90;15.75;;;;;;;;;;5039122;28;20189;-83
2021/04/01 10:15:07;;;;;;;29.48;15.70;;;;;;;;;;5034849;28;20186;-82
2021/04/01 10:17:35;;;;;;;23.98;13.18;;;;;;;;;;5047173;28;20177;-82
2021/04/01 10:20:02;;;;;;;26.30;15.48;;;;;;;;;;5036125;28;20352;-83
2021/04/01 10:22:29;;;;;;;24.35;14.88;;;;;;;;;;5036247;28;20660;-84
2021/04/01 10:25:02;;;;;;;23.52;13.88;;;;;;;;;;5039012;28;20697;-84
2021/04/01 10:27:39;;;;;;;25.17;14.50;;;;;;;;;;5054153;28;20197;-83
2021/04/01 10:30:08;;;;;;;27.85;15.23;;;;;;;;;;5036206;28;20178;-83
2021/04/01 10:32:50;;;;;;;29.13;14.07;;;;;;;;;;5041353;28;20182;-83
2021/04/01 10:35:17;;;;;;;24.02;14.27;;;;;;;;;;5043308;28;20189;-85
2021/04/01 10:37:47;;;;;;;21.90;15.73;;;;;;;;;;5034222;28;20210;-85
2021/04/01 10:40:14;;;;;;;26.77;14.77;;;;;;;;;;5038521;28;20190;-84
2021/04/01 10:42:42;;;;;;;26.48;15.45;;;;;;;;;;5039297;28;20225;-83
2021/04/01 10:45:12;;;;;;;28.75;15.07;;;;;;;;;;5036704;28;20283;-84
2021/04/01 10:47:57;;;;;;;25.27;13.73;;;;;;;;;;5030752;28;20203;-84
2021/04/01 10:50:26;;;;;;;26.67;14.43;;;;;;;;;;5056702;28;20186;-80
2021/04/01 10:52:53;;;;;;;28.42;15.35;;;;;;;;;;5038124;28;20175;-83
2021/04/01 10:55:23;;;;;;;27.48;15.23;;;;;;;;;;5035690;28;20191;-83
2021/04/01 10:57:49;;;;;;;28.38;15.57;;;;;;;;;;5059319;28;20687;-83
2021/04/01 11:00:16;;;;;;;27.30;15.40;;;;;;;;;;5041625;28;20190;-84
2021/04/01 11:02:46;;;;;;;23.55;13.18;;;;;;;;;;5044152;28;20185;-83
2021/04/01 11:05:16;;;;;;;30.50;12.73;;;;;;;;;;5045122;28;20214;-82
2021/04/01 11:07:46;;;;;;;20.15;12.60;;;;;;;;;;5060432;28;20177;-85
2021/04/01 11:10:26;;;;;;;31.88;15.00;;;;;;;;;;5041499;28;20217;-84
2021/04/01 11:12:58;;;;;;;28.73;13.70;;;;;;;;;;5039551;28;20190;-84
2021/04/01 11:15:25;;;;;;;25.20;14.45;;;;;;;;;;5031592;28;20188;-84
2021/04/01 11:17:54;;;;;;;23.80;12.98;;;;;;;;;;5028035;28;20264;-83
2021/04/01 11:20:23;;;;;;;30.17;13.70;;;;;;;;;;5047236;28;20220;-83
2021/04/01 11:23:01;;;;;;;26.80;13.87;;;;;;;;;;5031750;28;20478;-85
2021/04/01 11:25:28;;;;;;;32.03;14.40;;;;;;;;;;5055886;28;20491;-83
2021/04/01 11:27:54;;;;;;;33.23;15.67;;;;;;;;;;5039068;28;20754;-85
2021/04/01 11:30:20;;;;;;;24.13;14.83;;;;;;;;;;5043236;28;21018;-85
2021/04/01 11:32:51;;;;;;;24.70;14.33;;;;;;;;;;5058983;28;20448;-85
2021/04/01 11:35:19;;;;;;;26.33;15.30;;;;;;;;;;5044540;28;20455;-83
2021/04/01 11:37:48;;;;;;;23.47;12.77;;;;;;;;;;5042699;28;20411;-85
2021/04/01 11:40:15;;;;;;;21.97;11.03;;;;;;;;;;5058123;28;20429;-84
2021/04/01 11:42:51;;;;;;;22.00;11.47;;;;;;;;;;5042352;28;20511;-84
2021/04/01 11:45:17;;;;;;;21.27;12.00;;;;;;;;;;5038099;28;20463;-82
2021/04/01 11:47:43;;;;;;;16.77;9.27;;;;;;;;;;5053047;28;20587;-84
2021/04/01 11:50:09;;;;;;;18.43;11.20;;;;;;;;;;5042748;28;20442;-84
2021/04/01 11:52:36;;;;;;;20.83;11.80;;;;;;;;;;5037825;28;20426;-84
2021/04/01 11:55:09;;;;;;;14.43;9.27;;;;;;;;;;5050858;28;20409;-83
2021/04/01 11:57:35;;;;;;;14.30;8.53;;;;;;;;;;5056028;28;20446;-85
2021/04/01 12:03:14;;;;;;;12.90;9.33;;;;;;;;;;5041152;28;20431;-85
2021/04/01 12:05:46;;;;;;;18.10;10.00;;;;;;;;;;5042302;28;20981;-84
2021/04/01 12:08:12;;;;;;;13.03;9.63;;;;;;;;;;5042891;28;20474;-84
2021/04/01 12:10:38;;;;;;;14.30;8.53;;;;;;;;;;5047434;28;20440;-82
2021/04/01 12:13:06;;;;;;;15.87;10.40;;;;;;;;;;5052002;28;20540;-83
2021/04/01 12:15:40;;;;;;;12.10;8.57;;;;;;;;;;5050487;28;20521;-84
2021/04/01 12:18:06;;;;;;;13.17;9.43;;;;;;;;;;5040456;28;20450;-84
2021/04/01 12:20:33;;;;;;;13.97;10.03;;;;;;;;;;5058208;28;20508;-84
2021/04/01 12:23:13;;;;;;;11.70;9.50;;;;;;;;;;5052437;28;20484;-85
2021/04/01 12:25:40;;;;;;;15.53;11.37;;;;;;;;;;5038576;28;21121;-84
2021/04/01 12:28:06;;;;;;;21.40;12.30;;;;;;;;;;5040177;28;20441;-86
2021/04/01 12:30:38;;;;;;;17.50;11.50;;;;;;;;;;5040884;28;20479;-82
2021/04/01 12:33:13;;;;;;;18.93;11.50;;;;;;;;;;5027584;28;20436;-82
2021/04/01 12:35:59;;;;;;;13.00;9.43;;;;;;;;;;5039626;28;20874;-82
2021/04/01 12:38:35;;;;;;;11.70;9.60;;;;;;;;;;5035186;28;20457;-85
2021/04/01 12:41:03;;;;;;;15.73;11.10;;;;;;;;;;5055958;28;20446;-80
2021/04/01 12:43:30;;;;;;;13.80;9.77;;;;;;;;;;5053013;28;20513;-83
2021/04/01 12:45:57;;;;;;;12.63;9.87;;;;;;;;;;5051880;28;20485;-84
2021/04/01 12:48:23;;;;;;;14.07;11.57;;;;;;;;;;5039167;28;20436;-84
2021/04/01 12:50:50;;;;;;;11.83;9.07;;;;;;;;;;5035878;28;20568;-85
2021/04/01 12:53:22;;;;;;;10.77;9.07;;;;;;;;;;5032541;28;20453;-85
2021/04/01 12:55:54;;;;;;;12.13;10.00;;;;;;;;;;5041801;28;20464;-86
2021/04/01 12:58:30;;;;;;;12.40;9.33;;;;;;;;;;5043540;28;20448;-86
2021/04/01 13:01:06;;;;;;;14.97;10.00;;;;;;;;;;5043452;28;20992;-86
2021/04/01 13:03:32;;;;;;;12.90;9.30;;;;;;;;;;5051511;28;20459;-87
2021/04/01 13:06:03;;;;;;;11.03;8.20;;;;;;;;;;5027985;28;20460;-86
2021/04/01 13:08:48;;;;;;;11.87;9.47;;;;;;;;;;5028121;28;20425;-87
2021/04/01 13:11:16;;;;;;;12.83;10.27;;;;;;;;;;5044352;28;20465;-89
2021/04/01 13:13:42;;;;;;;14.70;10.23;;;;;;;;;;5043422;28;20450;-88
2021/04/01 13:16:08;;;;;;;13.83;9.37;;;;;;;;;;5054072;28;20440;-86
2021/04/01 13:18:35;;;;;;;11.50;9.60;;;;;;;;;;5041893;28;20506;-87
2021/04/01 13:27:17;;;;;;;12.73;9.60;;;;;;;;;;5034370;28;20519;-87
2021/04/01 13:29:50;;;;;;;10.77;9.20;;;;;;;;;;5032199;28;20921;-85
2021/04/01 13:32:21;;;;;;;15.33;11.37;;;;;;;;;;5039984;28;20433;-88
2021/04/01 13:34:54;;;;;;;13.03;9.90;;;;;;;;;;5042622;28;20448;-87
2021/04/01 13:37:32;;;;;;;15.30;9.67;;;;;;;;;;5042871;28;20454;-85
2021/04/01 13:40:05;;;;;;;12.73;9.57;;;;;;;;;;5040851;28;20503;-86
2021/04/01 13:42:33;;;;;;;15.73;9.73;;;;;;;;;;5057380;28;20468;-86
2021/04/01 13:45:07;;;;;;;14.23;11.23;;;;;;;;;;5058608;28;20516;-84
2021/04/01 13:47:36;;;;;;;14.27;10.10;;;;;;;;;;5058700;28;21007;-85
2021/04/01 13:50:02;;;;;;;12.30;9.50;;;;;;;;;;5043951;28;20423;-87
2021/04/01 13:52:48;;;;;;;13.50;10.07;;;;;;;;;;5058641;28;20495;-88
2021/04/01 13:55:20;;;;;;;16.43;11.17;;;;;;;;;;5043482;28;20526;-87
2021/04/01 14:00:41;;;;;;;11.83;8.97;;;;;;;;;;5043312;28;20448;-86
2021/04/01 14:03:57;;;;;;;16.63;8.60;;;;;;;;;;5029782;28;20447;-89
2021/04/01 14:09:24;;;;;;;13.97;9.03;;;;;;;;;;5029062;28;21036;-86
2021/04/01 14:11:50;;;;;;;15.43;9.27;;;;;;;;;;5042248;28;20425;-87
2021/04/01 14:14:17;;;;;;;13.87;9.20;;;;;;;;;;5043911;28;20413;-86
2021/04/01 14:16:43;;;;;;;12.10;8.23;;;;;;;;;;5039018;28;20420;-87
2021/04/01 14:19:10;;;;;;;15.30;8.70;;;;;;;;;;5042907;28;20937;-84
2021/04/01 14:21:36;;;;;;;14.80;10.57;;;;;;;;;;5043261;28;20430;-86
2021/04/01 14:24:08;;;;;;;19.43;11.60;;;;;;;;;;5043753;28;20438;-88
2021/04/01 14:26:39;;;;;;;16.13;10.70;;;;;;;;;;5042221;28;20479;-85
2021/04/01 14:29:05;;;;;;;14.03;9.73;;;;;;;;;;5057027;28;20403;-84
2021/04/01 14:31:33;;;;;;;12.00;8.40;;;;;;;;;;5047650;28;20427;-86
2021/04/01 14:34:01;;;;;;;13.90;9.70;;;;;;;;;;5047044;28;20405;-88
2021/04/01 14:36:27;;;;;;;16.60;9.80;;;;;;;;;;5047189;28;20519;-87
2021/04/01 14:38:54;;;;;;;16.67;9.57;;;;;;;;;;5062514;28;20440;-89
2021/04/01 14:41:34;;;;;;;14.47;9.50;;;;;;;;;;5048215;28;20431;-86
2021/04/01 14:44:08;;;;;;;17.93;10.10;;;;;;;;;;5043250;28;20494;-82
2021/04/01 14:46:34;;;;;;;14.20;9.30;;;;;;;;;;5046193;28;20804;-83
2021/04/01 14:49:04;;;;;;;17.87;9.60;;;;;;;;;;5046814;28;20895;-85
2021/04/01 14:51:30;;;;;;;14.93;9.80;;;;;;;;;;5047135;28;20408;-84
2021/04/01 14:53:58;;;;;;;13.03;8.43;;;;;;;;;;5047037;28;20553;-88
2021/04/01 14:56:27;;;;;;;15.90;9.80;;;;;;;;;;5045964;28;20405;-84
2021/04/01 14:58:53;;;;;;;15.23;8.80;;;;;;;;;;5047071;28;20488;-87
2021/04/01 15:01:23;;;;;;;16.13;9.27;;;;;;;;;;5046379;28;20435;-86
2021/04/01 15:03:50;;;;;;;19.33;8.40;;;;;;;;;;5046400;28;20421;-85
2021/04/01 15:06:16;;;;;;;15.00;9.70;;;;;;;;;;5046332;28;20445;-86
2021/04/01 15:08:42;;;;;;;14.87;9.40;;;;;;;;;;5061961;28;20427;-88
2021/04/01 15:11:08;;;;;;;18.00;10.87;;;;;;;;;;5047877;28;20451;-82
2021/04/01 15:13:34;;;;;;;21.33;12.03;;;;;;;;;;5035647;28;20496;-84
2021/04/01 15:16:00;;;;;;;17.80;10.93;;;;;;;;;;5041988;28;20416;-86
2021/04/01 15:18:28;;;;;;;23.07;12.40;;;;;;;;;;5044971;28;20421;-87
2021/04/01 15:20:54;;;;;;;22.77;11.10;;;;;;;;;;5046194;28;20445;-85
2021/04/01 15:23:20;;;;;;;20.40;11.37;;;;;;;;;;5047422;28;20409;-84
2021/04/01 15:25:46;;;;;;;23.33;12.73;;;;;;;;;;5045639;28;20437;-86
2021/04/01 15:28:13;;;;;;;22.43;12.50;;;;;;;;;;5038624;28;20447;-85
2021/04/01 15:30:39;;;;;;;28.90;14.13;;;;;;;;;;5036745;28;20413;-88
2021/04/01 15:33:05;;;;;;;27.27;12.40;;;;;;;;;;5045089;28;20437;-86
2021/04/01 15:35:32;;;;;;;25.53;13.43;;;;;;;;;;5046413;28;20430;-85
2021/04/01 15:37:58;;;;;;;24.50;12.63;;;;;;;;;;5049750;28;20409;-88
2021/04/01 15:40:24;;;;;;;22.00;12.70;;;;;;;;;;5041921;28;20444;-90
2021/04/01 15:42:50;;;;;;;24.40;13.87;;;;;;;;;;5044700;28;20495;-87
2021/04/01 15:45:16;;;;;;;23.40;13.70;;;;;;;;;;5044765;28;20472;-88
2021/04/01 15:47:42;;;;;;;29.30;15.90;;;;;;;;;;5044463;28;20418;-90
2021/04/01 15:50:08;;;;;;;28.57;13.87;;;;;;;;;;5048805;28;20484;-86
2021/04/01 15:52:34;;;;;;;27.00;14.27;;;;;;;;;;5044126;28;20460;-87
2021/04/01 15:55:01;;;;;;;29.53;16.50;;;;;;;;;;5040140;28;20543;-89
2021/04/01 15:57:27;;;;;;;25.17;15.70;;;;;;;;;;5043319;28;20518;-90
2021/04/01 15:59:53;;;;;;;30.13;16.67;;;;;;;;;;5029851;28;20487;-86
2021/04/01 16:02:19;;;;;;;31.10;17.60;;;;;;;;;;5046246;28;20393;-85
2021/04/01 16:04:45;;;;;;;31.07;17.20;;;;;;;;;;5044165;28;20518;-85
2021/04/01 16:07:11;;;;;;;35.47;18.60;;;;;;;;;;5032860;28;20452;-86
2021/04/01 16:09:37;;;;;;;32.13;18.00;;;;;;;;;;5041490;28;20470;-87
2021/04/01 16:12:03;;;;;;;29.27;16.97;;;;;;;;;;5044858;28;20463;-90
2021/04/01 16:14:29;;;;;;;28.80;17.10;;;;;;;;;;5060863;28;20464;-89
2021/04/01 16:16:55;;;;;;;31.50;17.03;;;;;;;;;;5060664;28;20412;-87
2021/04/01 16:19:21;;;;;;;34.00;18.93;;;;;;;;;;5044091;28;20999;-89
2021/04/01 16:21:47;;;;;;;33.20;18.70;;;;;;;;;;5041681;28;20415;-86
2021/04/01 16:24:15;;;;;;;35.33;21.80;;;;;;;;;;5040589;28;20476;-87
2021/04/01 16:26:41;;;;;;;35.80;21.30;;;;;;;;;;5059125;28;20468;-85
2021/04/01 16:29:07;;;;;;;34.67;18.97;;;;;;;;;;5040648;28;20440;-87